createdAt,value
2023-03-06T07:12:22.692Z,-2.76
2023-03-06T07:14:56.477Z,-2.58
2023-03-06T07:17:24.511Z,-2.56
2023-03-06T07:19:52.333Z,-2.54
2023-03-06T07:22:20.242Z,-2.51
2023-03-06T07:24:47.972Z,-2.49
2023-03-06T07:27:15.924Z,-2.45
2023-03-06T07:29:44.969Z,-2.40
2023-03-06T07:32:12.728Z,-2.35
2023-03-06T07:34:41.431Z,-2.29
2023-03-06T07:37:09.077Z,-2.24
2023-03-06T07:39:36.741Z,-2.18
2023-03-06T07:42:08.011Z,-2.13
2023-03-06T07:44:37.717Z,-2.06
2023-03-06T07:47:06.385Z,-1.98
2023-03-06T07:49:34.963Z,-1.87
2023-03-06T07:52:02.874Z,-1.75
2023-03-06T07:54:35.525Z,-1.65
2023-03-06T07:57:03.601Z,-1.58
2023-03-06T07:59:31.787Z,-1.53
2023-03-06T08:01:59.378Z,-1.46
2023-03-06T08:04:29.067Z,-1.35
2023-03-06T08:07:03.716Z,-1.25
2023-03-06T08:09:33.512Z,-1.15
2023-03-06T08:12:01.482Z,-1.04
2023-03-06T08:14:29.179Z,-0.96
2023-03-06T08:16:57.217Z,-0.90
2023-03-06T08:19:25.190Z,-0.83
2023-03-06T08:21:53.052Z,-0.73
2023-03-06T08:24:20.942Z,-0.64
2023-03-06T08:26:48.695Z,-0.53
2023-03-06T08:29:16.402Z,-0.41
2023-03-06T08:31:46.930Z,-0.31
2023-03-06T08:34:20.708Z,-0.21
2023-03-06T08:36:48.793Z,-0.07
2023-03-06T08:39:17.139Z,0.16
2023-03-06T08:41:45.980Z,0.39
2023-03-06T08:44:14.410Z,0.60
2023-03-06T08:46:46.915Z,0.83
2023-03-06T08:49:18.893Z,1.10
2023-03-06T08:51:48.087Z,1.37
2023-03-06T08:54:18.850Z,1.62
2023-03-06T08:56:46.900Z,1.77
2023-03-06T08:59:14.687Z,1.88
2023-03-06T09:01:42.542Z,1.95
2023-03-06T09:04:13.260Z,1.99
2023-03-06T09:06:44.036Z,1.99
2023-03-06T09:09:13.026Z,2.11
2023-03-06T09:11:40.778Z,2.28
2023-03-06T09:14:08.561Z,2.37
2023-03-06T09:16:36.336Z,2.42
2023-03-06T09:19:04.560Z,2.60
2023-03-06T09:21:32.416Z,2.79
2023-03-06T09:24:00.605Z,2.97
2023-03-06T09:26:43.472Z,3.18
2023-03-06T09:29:16.214Z,3.36
2023-03-06T09:31:45.263Z,3.53
2023-03-06T09:34:12.978Z,3.71
2023-03-06T09:36:55.535Z,3.74
2023-03-06T09:39:27.548Z,3.79
2023-03-06T09:41:59.474Z,3.93
2023-03-06T09:44:39.266Z,3.83
2023-03-06T09:47:25.696Z,3.68
2023-03-06T09:50:05.448Z,3.57
2023-03-06T09:52:36.040Z,3.48
2023-03-06T09:55:10.198Z,3.45
2023-03-06T09:57:45.439Z,3.45
2023-03-06T10:00:24.494Z,3.42
2023-03-06T10:03:16.058Z,3.41
2023-03-06T10:06:10.376Z,3.49
2023-03-06T10:08:53.733Z,3.75
2023-03-06T10:11:33.313Z,3.92
2023-03-06T10:14:39.632Z,4.02
2023-03-06T10:17:17.004Z,4.14
2023-03-06T10:19:48.567Z,4.21
2023-03-06T10:22:38.415Z,4.27
2023-03-06T10:25:25.579Z,4.46
2023-03-06T10:27:59.637Z,4.67
2023-03-06T10:30:49.542Z,4.93
2023-03-06T10:33:45.179Z,5.15
2023-03-06T10:36:20.096Z,5.25
2023-03-06T10:38:49.510Z,5.35
2023-03-06T10:41:38.436Z,5.42
2023-03-06T10:44:13.564Z,5.40
2023-03-06T10:46:47.610Z,5.52
2023-03-06T10:49:33.796Z,5.67
2023-03-06T10:52:21.357Z,5.91
2023-03-06T10:54:49.109Z,6.21
2023-03-06T10:57:32.822Z,6.63
2023-03-06T11:00:24.705Z,6.85
2023-03-06T11:03:21.669Z,6.55
2023-03-06T11:06:13.606Z,6.15
2023-03-06T11:08:44.147Z,5.90
2023-03-06T11:11:36.367Z,5.72
2023-03-06T11:14:16.822Z,5.42
2023-03-06T11:16:53.160Z,5.26
2023-03-06T11:19:29.271Z,5.22
2023-03-06T11:22:18.817Z,5.07
2023-03-06T11:24:50.454Z,4.92
2023-03-06T11:27:30.849Z,4.84
2023-03-06T11:30:00.525Z,4.76
2023-03-06T11:32:35.044Z,4.74
2023-03-06T11:35:12.074Z,4.73
2023-03-06T11:37:56.857Z,4.69
2023-03-06T11:40:28.477Z,4.70
2023-03-06T11:43:17.366Z,4.73
2023-03-06T11:46:08.848Z,4.75
2023-03-06T11:48:45.243Z,4.68
2023-03-06T11:51:21.929Z,4.61
2023-03-06T11:53:49.870Z,4.68
2023-03-06T11:56:20.287Z,4.93
2023-03-06T11:59:10.176Z,5.20
2023-03-06T12:01:46.839Z,5.43
2023-03-06T12:04:30.388Z,5.61
2023-03-06T12:07:29.352Z,5.86
2023-03-06T12:10:09.052Z,6.28
2023-03-06T12:13:07.389Z,6.56
2023-03-06T12:16:07.786Z,6.42
2023-03-06T12:19:10.202Z,6.12
2023-03-06T12:22:01.204Z,5.72
2023-03-06T12:24:55.774Z,5.34
2023-03-06T12:27:45.755Z,5.04
2023-03-06T12:30:48.298Z,4.81
2023-03-06T12:33:35.437Z,4.71
2023-03-06T12:36:34.822Z,4.64
2023-03-06T12:39:24.617Z,4.52
2023-03-06T12:42:23.661Z,4.31
2023-03-06T12:45:05.917Z,4.05
2023-03-06T12:47:45.729Z,3.74
2023-03-06T12:50:24.389Z,3.54
2023-03-06T12:52:56.893Z,3.37
2023-03-06T12:55:29.347Z,3.29
2023-03-06T12:58:34.130Z,3.27
2023-03-06T13:01:24.440Z,3.26
2023-03-06T13:04:01.450Z,3.15
2023-03-06T13:07:02.677Z,3.11
2023-03-06T13:09:51.307Z,3.04
2023-03-06T13:12:22.897Z,3.01
2023-03-06T13:15:05.265Z,2.97
2023-03-06T13:17:40.378Z,2.94
2023-03-06T13:20:49.269Z,2.86
2023-03-06T13:23:33.958Z,2.74
2023-03-06T13:26:20.103Z,2.66
2023-03-06T13:28:51.201Z,2.58
2023-03-06T13:31:48.926Z,2.45
2023-03-06T13:34:40.338Z,2.36
2023-03-06T13:37:36.909Z,2.29
2023-03-06T13:40:05.054Z,2.23
2023-03-06T13:42:53.875Z,2.20
2023-03-06T13:45:39.138Z,2.11
2023-03-06T13:48:33.642Z,2.06
2023-03-06T13:51:13.931Z,2.04
2023-03-06T13:54:04.388Z,2.04
2023-03-06T13:56:53.874Z,2.02
2023-03-06T13:59:37.110Z,1.99
2023-03-06T14:02:04.939Z,1.94
2023-03-06T14:05:05.623Z,1.92
2023-03-06T14:07:40.452Z,1.91
2023-03-06T14:10:08.275Z,1.86
2023-03-06T14:12:40.662Z,1.82
2023-03-06T14:15:22.511Z,1.80
2023-03-06T14:17:59.109Z,1.79
2023-03-06T14:20:35.294Z,1.78
2023-03-06T14:23:21.935Z,1.75
2023-03-06T14:26:17.439Z,1.73
2023-03-06T14:28:57.279Z,1.69
2023-03-06T14:31:30.439Z,1.64
2023-03-06T14:33:59.552Z,1.61
2023-03-06T14:36:44.391Z,1.59
2023-03-06T14:39:43.219Z,1.57
2023-03-06T14:42:53.417Z,1.58
2023-03-06T14:45:21.423Z,1.62
2023-03-06T14:47:53.297Z,1.64
2023-03-06T14:50:28.647Z,1.65
2023-03-06T14:53:00.443Z,1.66
2023-03-06T14:55:32.819Z,1.68
2023-03-06T14:58:11.397Z,1.72
2023-03-06T15:00:46.427Z,1.76
2023-03-06T15:03:41.768Z,1.78
2023-03-06T15:06:15.330Z,1.78
2023-03-06T15:08:45.958Z,1.78
2023-03-06T15:11:14.445Z,1.79
2023-03-06T15:13:42.777Z,1.78
2023-03-06T15:16:13.587Z,1.78
2023-03-06T15:19:02.661Z,1.80
2023-03-06T15:21:36.658Z,1.81
2023-03-06T15:24:40.222Z,1.82
2023-03-06T15:27:18.145Z,1.82
2023-03-06T15:29:45.893Z,1.80
2023-03-06T15:32:15.044Z,1.77
2023-03-06T15:34:42.780Z,1.74
2023-03-06T15:37:27.795Z,1.74
2023-03-06T15:40:09.458Z,1.74
2023-03-06T15:42:37.445Z,1.73
2023-03-06T15:45:26.924Z,1.72
2023-03-06T15:47:55.800Z,1.70
2023-03-06T15:50:26.059Z,1.68
2023-03-06T15:52:54.049Z,1.67
2023-03-06T15:55:25.975Z,1.67
2023-03-06T15:57:56.747Z,1.67
2023-03-06T16:00:28.731Z,1.67
2023-03-06T16:02:58.309Z,1.67
2023-03-06T16:05:27.387Z,1.68
2023-03-06T16:07:55.911Z,1.70
2023-03-06T16:10:27.057Z,1.72
2023-03-06T16:12:59.592Z,1.72
2023-03-06T16:15:30.580Z,1.71
2023-03-06T16:17:59.730Z,1.71
2023-03-06T16:20:28.925Z,1.71
2023-03-06T16:22:56.916Z,1.71
2023-03-06T16:25:27.723Z,1.66
2023-03-06T16:27:57.958Z,1.63
2023-03-06T16:30:29.165Z,1.61
2023-03-06T16:32:57.700Z,1.61
2023-03-06T16:35:26.016Z,1.63
2023-03-06T16:37:54.051Z,1.63
2023-03-06T16:40:22.176Z,1.63
2023-03-06T16:42:52.410Z,1.66
2023-03-06T16:45:22.065Z,1.67
2023-03-06T16:47:50.224Z,1.65
2023-03-06T16:50:40.309Z,1.62
2023-03-06T16:53:08.078Z,1.61
2023-03-06T16:55:35.771Z,1.60
2023-03-06T16:58:03.691Z,1.62
2023-03-06T17:00:33.091Z,1.65
2023-03-06T17:03:02.282Z,1.65
2023-03-06T17:05:34.192Z,1.66
2023-03-06T17:08:03.506Z,1.68
2023-03-06T17:10:31.335Z,1.72
2023-03-06T17:12:58.942Z,1.76
2023-03-06T17:15:26.654Z,1.80
2023-03-06T17:17:56.828Z,1.82
2023-03-06T17:20:24.637Z,1.83
2023-03-06T17:22:52.291Z,1.81
2023-03-06T17:25:19.966Z,1.81
2023-03-06T17:27:47.573Z,1.83
2023-03-06T17:30:15.752Z,1.85
2023-03-06T17:32:43.407Z,1.87
2023-03-06T17:35:11.337Z,1.90
2023-03-06T17:37:39.107Z,1.91
2023-03-06T17:40:10.551Z,1.90
2023-03-06T17:42:38.266Z,1.89
2023-03-06T17:45:09.168Z,1.88
2023-03-06T17:47:38.021Z,1.88
2023-03-06T17:50:07.334Z,1.86
2023-03-06T17:52:35.091Z,1.84
2023-03-06T17:55:03.546Z,1.82
2023-03-06T17:57:31.274Z,1.81
2023-03-06T17:59:59.166Z,1.78
2023-03-06T18:02:28.313Z,1.75
2023-03-06T18:04:58.258Z,1.73
2023-03-06T18:07:26.600Z,1.71
2023-03-06T18:09:54.316Z,1.68
2023-03-06T18:12:22.363Z,1.65
2023-03-06T18:14:50.666Z,1.61
2023-03-06T18:17:18.685Z,1.59
2023-03-06T18:19:46.460Z,1.58
2023-03-06T18:22:14.146Z,1.57
2023-03-06T18:24:41.856Z,1.54
2023-03-06T18:27:09.728Z,1.52
2023-03-06T18:29:37.510Z,1.49
2023-03-06T18:32:05.533Z,1.47
2023-03-06T18:34:33.270Z,1.43
2023-03-06T18:37:01.232Z,1.37
2023-03-06T18:39:28.956Z,1.34
2023-03-06T18:41:56.770Z,1.32
2023-03-06T18:44:24.536Z,1.33
2023-03-06T18:46:52.425Z,1.33
2023-03-06T18:49:20.347Z,1.34
2023-03-06T18:51:50.350Z,1.35
2023-03-06T18:54:18.472Z,1.35
2023-03-06T18:56:46.394Z,1.37
2023-03-06T18:59:17.604Z,1.36
2023-03-06T19:01:47.687Z,1.32
2023-03-06T19:04:15.879Z,1.26
2023-03-06T19:06:43.999Z,1.23
2023-03-06T19:09:12.050Z,1.21
2023-03-06T19:11:40.384Z,1.20
2023-03-06T19:14:08.508Z,1.16
2023-03-06T19:16:36.380Z,1.14
2023-03-06T19:19:04.161Z,1.12
2023-03-06T19:21:31.959Z,1.11
2023-03-06T19:24:01.697Z,1.12
2023-03-06T19:26:29.630Z,1.11
2023-03-06T19:28:57.425Z,1.10
2023-03-06T19:31:27.476Z,1.11
2023-03-06T19:33:56.729Z,1.09
2023-03-06T19:36:28.642Z,1.07
2023-03-06T19:38:58.558Z,1.05
2023-03-06T19:41:27.206Z,1.04
2023-03-06T19:43:58.307Z,0.97
2023-03-06T19:46:26.774Z,0.94
2023-03-06T19:49:00.630Z,0.90
2023-03-06T19:51:29.434Z,0.85
2023-03-06T19:53:58.807Z,0.81
2023-03-06T19:56:29.284Z,0.79
2023-03-06T19:58:57.336Z,0.76
2023-03-06T20:01:27.418Z,0.74
2023-03-06T20:03:59.348Z,0.72
2023-03-06T20:06:33.457Z,0.69
2023-03-06T20:09:04.138Z,0.66
2023-03-06T20:11:32.366Z,0.63
2023-03-06T20:14:02.791Z,0.62
2023-03-06T20:16:31.645Z,0.60
2023-03-06T20:19:00.928Z,0.57
2023-03-06T20:21:31.759Z,0.53
2023-03-06T20:23:59.834Z,0.44
2023-03-06T20:26:28.993Z,0.36
2023-03-06T20:28:57.477Z,0.30
2023-03-06T20:31:28.437Z,0.27
2023-03-06T20:33:58.224Z,0.25
2023-03-06T20:36:29.474Z,0.23
2023-03-06T20:39:00.388Z,0.20
2023-03-06T20:41:29.743Z,0.15
2023-03-06T20:44:02.336Z,0.10
2023-03-06T20:46:30.758Z,0.05
2023-03-06T20:48:59.368Z,0.00
2023-03-06T20:51:32.622Z,-0.02
2023-03-06T20:54:02.227Z,-0.03
2023-03-06T20:56:33.026Z,-0.06
2023-03-06T20:59:00.865Z,-0.07
2023-03-06T21:01:34.119Z,-0.09
2023-03-06T21:04:04.409Z,-0.12
2023-03-06T21:06:33.208Z,-0.14
2023-03-06T21:09:02.161Z,-0.15
2023-03-06T21:11:30.167Z,-0.15
2023-03-06T21:13:58.084Z,-0.15
2023-03-06T21:16:27.338Z,-0.16
2023-03-06T21:18:55.891Z,-0.17
2023-03-06T21:21:32.838Z,-0.19
2023-03-06T21:24:02.366Z,-0.23
2023-03-06T21:26:33.573Z,-0.27
2023-03-06T21:29:02.152Z,-0.32
2023-03-06T21:31:30.734Z,-0.36
2023-03-06T21:33:58.907Z,-0.39
2023-03-06T21:36:27.111Z,-0.41
2023-03-06T21:38:55.367Z,-0.45
2023-03-06T21:41:25.747Z,-0.46
2023-03-06T21:43:58.308Z,-0.52
2023-03-06T21:46:27.019Z,-0.57
2023-03-06T21:48:55.081Z,-0.65
2023-03-06T21:51:24.955Z,-0.72
2023-03-06T21:53:53.840Z,-0.76
2023-03-06T21:56:25.144Z,-0.81
2023-03-06T21:58:53.561Z,-0.88
2023-03-06T22:01:28.329Z,-0.92
2023-03-06T22:03:58.268Z,-0.97
2023-03-06T22:06:27.358Z,-1.02
2023-03-06T22:08:56.509Z,-1.06
2023-03-06T22:11:26.298Z,-1.09
2023-03-06T22:13:54.021Z,-1.13
2023-03-06T22:16:21.668Z,-1.18
2023-03-06T22:18:51.444Z,-1.21
2023-03-06T22:21:21.072Z,-1.22
2023-03-06T22:23:50.613Z,-1.25
2023-03-06T22:26:18.537Z,-1.27
2023-03-06T22:28:46.547Z,-1.31
2023-03-06T22:31:23.928Z,-1.33
2023-03-06T22:33:56.631Z,-1.35
2023-03-06T22:36:25.034Z,-1.39
2023-03-06T22:38:58.671Z,-1.43
2023-03-06T22:41:27.483Z,-1.48
2023-03-06T22:43:57.054Z,-1.53
2023-03-06T22:46:25.091Z,-1.58
2023-03-06T22:48:52.873Z,-1.60
2023-03-06T22:51:21.180Z,-1.61
2023-03-06T22:53:49.322Z,-1.65
2023-03-06T22:56:19.848Z,-1.69
2023-03-06T22:58:48.453Z,-1.73
2023-03-06T23:01:17.887Z,-1.75
2023-03-06T23:03:51.053Z,-1.79
2023-03-06T23:06:23.593Z,-1.84
2023-03-06T23:09:02.045Z,-1.88
2023-03-06T23:11:30.708Z,-1.95
2023-03-06T23:13:58.986Z,-1.98
2023-03-06T23:16:26.732Z,-2.01
2023-03-06T23:18:54.824Z,-2.02
2023-03-06T23:21:23.312Z,-2.04
2023-03-06T23:23:56.306Z,-2.06
2023-03-06T23:26:26.511Z,-2.09
2023-03-06T23:28:54.503Z,-2.11
2023-03-06T23:31:28.630Z,-2.13
2023-03-06T23:33:58.560Z,-2.14
2023-03-06T23:36:27.039Z,-2.16
2023-03-06T23:38:55.091Z,-2.17
2023-03-06T23:41:23.842Z,-2.18
2023-03-06T23:43:54.078Z,-2.20
2023-03-06T23:46:23.012Z,-2.23
2023-03-06T23:48:50.706Z,-2.27
2023-03-06T23:51:20.637Z,-2.30
2023-03-06T23:53:56.975Z,-2.33
2023-03-06T23:56:26.562Z,-2.34
2023-03-06T23:58:54.408Z,-2.36
